Subpeak Weather - Last 24 Hours


View Last Hour    View Last 24 Hours

Time
Avg. Air Temp
Dew Point
Avg. Rel Humidity
Avg. 2 Min Wind Speed
Max Gust Velocity
MGV Time
MGV Direction
Avg. Spot Wind Velocity
2014-09-18 02:00:006° C2° C78%10 km/h22 km/h2014-09-18 01:36:10NW13 km/h
2014-09-18 01:00:007° C3° C76%11 km/h23 km/h2014-09-18 00:36:10NW13 km/h
2014-09-18 00:00:008° C3° C71%15 km/h24 km/h2014-09-17 23:10:10SW15 km/h
2014-09-17 23:00:008° C2° C64%15 km/h26 km/h2014-09-17 22:12:10SW17 km/h
2014-09-17 22:00:008° C2° C64%15 km/h35 km/h2014-09-17 21:10:10S22 km/h
2014-09-17 21:00:009° C2° C63%26 km/h32 km/h2014-09-17 20:10:10S25 km/h
2014-09-17 20:00:009° C1° C59%25 km/h28 km/h2014-09-17 19:59:10S17 km/h
2014-09-17 19:00:009° C2° C58%17 km/h27 km/h2014-09-17 18:37:10S18 km/h
2014-09-17 18:00:0010° C2° C57%17 km/h20 km/h2014-09-17 17:59:10S11 km/h
2014-09-17 17:00:0010° C2° C56%12 km/h25 km/h2014-09-17 16:08:10SW14 km/h
2014-09-17 16:00:0010° C1° C49%14 km/h32 km/h2014-09-17 15:41:10SW21 km/h
2014-09-17 15:00:0012° C-1° C41%15 km/h28 km/h2014-09-17 14:07:10S14 km/h
2014-09-17 14:00:0013° C-1° C37%13 km/h30 km/h2014-09-17 13:39:10S13 km/h
2014-09-17 13:00:0013° C-1° C36%13 km/h19 km/h2014-09-17 12:02:10SE11 km/h
2014-09-17 12:00:0012° C-3° C34%14 km/h19 km/h2014-09-17 11:01:00S13 km/h
2014-09-17 11:00:0013° C-5° C31%14 km/h22 km/h2014-09-17 10:58:10S14 km/h
2014-09-17 10:00:0012° C-5° C30%17 km/h21 km/h2014-09-17 09:57:10S14 km/h
2014-09-17 09:00:0011° C-6° C27%14 km/h19 km/h2014-09-17 08:53:10S14 km/h
2014-09-17 08:00:0011° C-7° C24%14 km/h18 km/h2014-09-17 07:49:10S14 km/h
2014-09-17 07:00:0011° C-9° C22%15 km/h17 km/h2014-09-17 06:44:10S14 km/h
2014-09-17 06:00:0011° C-10° C21%13 km/h14 km/h2014-09-17 05:56:10S11 km/h
2014-09-17 05:00:0012° C-10° C20%12 km/h15 km/h2014-09-17 04:09:10SW12 km/h
2014-09-17 04:00:0012° C-9° C20%15 km/h16 km/h2014-09-17 03:22:10W14 km/h
2014-09-17 03:00:0012° C-10° C20%15 km/h18 km/h2014-09-17 02:42:10SW15 km/h